createdAt,value
2022-08-01T00:14:07.771Z,7.5
2022-08-01T00:29:50.043Z,7.3
2022-08-01T00:45:32.027Z,6.9
2022-08-01T01:01:14.923Z,8.39
2022-08-01T01:16:57.650Z,7.6
2022-08-01T01:32:40.572Z,7.8
2022-08-01T01:48:23.211Z,6.6
2022-08-01T01:49:10.471Z,7.3
2022-08-01T02:04:52.531Z,8.7
2022-08-01T02:20:34.840Z,7.6
2022-08-01T02:36:17.535Z,8.6
2022-08-01T02:51:59.938Z,7.7
2022-08-01T03:07:42.217Z,8.5
2022-08-01T03:23:25.013Z,8.8
2022-08-01T03:39:07.495Z,8.5
2022-08-01T03:54:50.476Z,9.1
2022-08-01T04:10:33.050Z,9.3
2022-08-01T04:26:15.625Z,8.2
2022-08-01T04:41:57.652Z,8.39
2022-08-01T04:57:40.200Z,11.1
2022-08-01T05:13:23.132Z,10.2
2022-08-01T05:29:05.354Z,12.7
2022-08-01T05:44:47.353Z,10.9
2022-08-01T06:00:29.942Z,10.8
2022-08-01T06:16:11.992Z,9.1
2022-08-01T06:31:54.167Z,7.4
2022-08-01T06:47:36.683Z,6.6
2022-08-01T07:03:19.612Z,7.6
2022-08-01T07:19:02.296Z,7.3
2022-08-01T07:34:44.268Z,5.6
2022-08-01T07:50:26.353Z,7.2
2022-08-01T08:06:08.568Z,6.7
2022-08-01T08:21:51.125Z,4.4
2022-08-01T08:37:33.189Z,5.2
2022-08-01T08:53:15.888Z,6.9
2022-08-01T09:08:58.854Z,6.1
2022-08-01T09:24:41.616Z,6.3
2022-08-01T09:40:24.139Z,4.3
2022-08-01T09:56:06.818Z,4.19
2022-08-01T10:11:48.871Z,3
2022-08-01T10:27:31.421Z,3.6
2022-08-01T10:43:13.948Z,4.9
2022-08-01T10:58:56.705Z,4.5
2022-08-01T11:14:39.119Z,3.6
2022-08-01T11:30:21.600Z,2.7
2022-08-01T11:46:03.779Z,2.2
2022-08-01T12:01:46.570Z,4.3
2022-08-01T12:17:28.785Z,3.6
2022-08-01T12:33:10.886Z,3
2022-08-01T12:48:53.693Z,3.9
2022-08-01T13:04:35.973Z,2.2
2022-08-01T13:20:18.585Z,1.8
2022-08-01T13:36:00.975Z,3.9
2022-08-01T13:51:43.177Z,3.4
2022-08-01T14:07:25.498Z,3.1
2022-08-01T14:23:08.381Z,3.8
2022-08-01T14:38:50.906Z,4.69
2022-08-01T14:54:33.243Z,3.4
2022-08-01T15:10:16.062Z,2.4
2022-08-01T15:25:58.811Z,1.6
2022-08-01T15:41:41.457Z,2.9
2022-08-01T15:57:23.593Z,2
2022-08-01T16:13:05.534Z,2.8
2022-08-01T16:28:47.691Z,1.4
2022-08-01T16:44:30.026Z,2
2022-08-01T17:00:12.294Z,2.09
2022-08-01T17:15:54.280Z,3.6
2022-08-01T17:31:36.396Z,2.2
2022-08-01T17:47:18.442Z,2.4
2022-08-01T18:03:00.785Z,4.1
2022-08-01T18:18:43.140Z,4.19
2022-08-01T18:34:25.500Z,3.8
2022-08-01T18:50:07.581Z,4.1
2022-08-01T19:05:50.360Z,5.1
2022-08-01T19:21:32.677Z,3.2
2022-08-01T19:37:14.855Z,4.1
2022-08-01T19:52:57.076Z,3.2
2022-08-01T20:08:39.226Z,3
2022-08-01T20:24:21.850Z,6.7
2022-08-01T20:40:04.243Z,3
2022-08-01T20:55:47.027Z,3.2
2022-08-01T21:11:29.740Z,3.2
2022-08-01T21:27:12.266Z,4.5
2022-08-01T21:42:54.429Z,2.8
2022-08-01T21:58:36.734Z,5.1
2022-08-01T22:14:18.843Z,5.9
2022-08-01T22:30:01.798Z,9.3
2022-08-01T22:45:43.870Z,5.1
2022-08-01T23:01:26.642Z,6
2022-08-01T23:17:09.459Z,5.2
2022-08-01T23:32:52.409Z,6.8
2022-08-01T23:48:34.565Z,6.8
